sensor_id;sensor_type;location;lat;lon;timestamp;P1;durP1;ratioP1;P2;durP2;ratioP2
6205;SDS011;3136;48.788;9.772;2022-09-09T00:00:49;8.30;;;2.70;;
6205;SDS011;3136;48.788;9.772;2022-09-09T00:03:26;3.70;;;2.13;;
6205;SDS011;3136;48.788;9.772;2022-09-09T00:06:10;10.20;;;2.77;;
6205;SDS011;3136;48.788;9.772;2022-09-09T00:08:52;4.47;;;2.77;;
6205;SDS011;3136;48.788;9.772;2022-09-09T00:11:25;7.33;;;3.07;;
6205;SDS011;3136;48.788;9.772;2022-09-09T00:13:55;6.40;;;3.03;;
6205;SDS011;3136;48.788;9.772;2022-09-09T00:16:25;6.03;;;3.13;;
6205;SDS011;3136;48.788;9.772;2022-09-09T00:19:05;5.37;;;2.80;;
6205;SDS011;3136;48.788;9.772;2022-09-09T00:21:38;7.23;;;3.13;;
6205;SDS011;3136;48.788;9.772;2022-09-09T00:24:32;9.70;;;2.67;;
6205;SDS011;3136;48.788;9.772;2022-09-09T00:27:51;7.87;;;3.63;;
6205;SDS011;3136;48.788;9.772;2022-09-09T00:30:12;7.27;;;3.30;;
6205;SDS011;3136;48.788;9.772;2022-09-09T00:32:41;6.37;;;3.13;;
6205;SDS011;3136;48.788;9.772;2022-09-09T00:35:18;6.07;;;2.90;;
6205;SDS011;3136;48.788;9.772;2022-09-09T00:37:50;13.87;;;3.07;;
6205;SDS011;3136;48.788;9.772;2022-09-09T00:40:32;6.20;;;3.03;;
6205;SDS011;3136;48.788;9.772;2022-09-09T00:43:10;8.47;;;3.33;;
6205;SDS011;3136;48.788;9.772;2022-09-09T00:54:18;4.90;;;3.07;;
6205;SDS011;3136;48.788;9.772;2022-09-09T00:57:07;6.50;;;3.10;;
6205;SDS011;3136;48.788;9.772;2022-09-09T01:00:41;7.67;;;3.30;;
6205;SDS011;3136;48.788;9.772;2022-09-09T01:11:53;6.57;;;3.50;;
6205;SDS011;3136;48.788;9.772;2022-09-09T01:17:14;4.73;;;3.03;;
6205;SDS011;3136;48.788;9.772;2022-09-09T01:22:26;4.83;;;3.00;;
6205;SDS011;3136;48.788;9.772;2022-09-09T01:27:40;5.63;;;3.03;;
6205;SDS011;3136;48.788;9.772;2022-09-09T01:30:09;5.77;;;3.10;;
6205;SDS011;3136;48.788;9.772;2022-09-09T01:32:42;4.17;;;3.27;;
6205;SDS011;3136;48.788;9.772;2022-09-09T01:35:14;5.63;;;3.40;;
6205;SDS011;3136;48.788;9.772;2022-09-09T01:37:50;5.97;;;3.50;;
6205;SDS011;3136;48.788;9.772;2022-09-09T01:40:16;4.40;;;3.03;;
6205;SDS011;3136;48.788;9.772;2022-09-09T01:42:42;7.17;;;3.57;;
6205;SDS011;3136;48.788;9.772;2022-09-09T01:45:08;6.53;;;3.10;;
6205;SDS011;3136;48.788;9.772;2022-09-09T01:47:34;6.73;;;3.13;;
6205;SDS011;3136;48.788;9.772;2022-09-09T01:50:00;4.13;;;2.97;;
6205;SDS011;3136;48.788;9.772;2022-09-09T01:52:27;5.87;;;3.60;;
6205;SDS011;3136;48.788;9.772;2022-09-09T01:54:54;4.33;;;2.70;;
6205;SDS011;3136;48.788;9.772;2022-09-09T02:00:15;5.57;;;2.60;;
6205;SDS011;3136;48.788;9.772;2022-09-09T02:02:49;4.97;;;2.80;;
6205;SDS011;3136;48.788;9.772;2022-09-09T02:05:44;5.10;;;3.00;;
6205;SDS011;3136;48.788;9.772;2022-09-09T02:08:18;5.50;;;2.83;;
6205;SDS011;3136;48.788;9.772;2022-09-09T02:11:13;3.73;;;2.67;;
6205;SDS011;3136;48.788;9.772;2022-09-09T02:13:40;4.30;;;2.70;;
6205;SDS011;3136;48.788;9.772;2022-09-09T02:16:10;7.27;;;3.00;;
6205;SDS011;3136;48.788;9.772;2022-09-09T02:19:00;5.30;;;3.00;;
6205;SDS011;3136;48.788;9.772;2022-09-09T02:21:48;5.17;;;2.70;;
6205;SDS011;3136;48.788;9.772;2022-09-09T02:24:15;12.47;;;3.10;;
6205;SDS011;3136;48.788;9.772;2022-09-09T02:26:41;7.83;;;2.60;;
6205;SDS011;3136;48.788;9.772;2022-09-09T02:29:14;6.50;;;2.90;;
6205;SDS011;3136;48.788;9.772;2022-09-09T02:31:42;7.90;;;2.73;;
6205;SDS011;3136;48.788;9.772;2022-09-09T02:34:10;4.17;;;3.00;;
6205;SDS011;3136;48.788;9.772;2022-09-09T02:36:38;5.13;;;2.90;;
6205;SDS011;3136;48.788;9.772;2022-09-09T02:39:08;6.63;;;3.10;;
6205;SDS011;3136;48.788;9.772;2022-09-09T02:41:36;6.77;;;3.43;;
6205;SDS011;3136;48.788;9.772;2022-09-09T02:44:13;6.20;;;3.20;;
6205;SDS011;3136;48.788;9.772;2022-09-09T02:49:33;3.67;;;2.80;;
6205;SDS011;3136;48.788;9.772;2022-09-09T02:55:12;7.47;;;3.00;;
6205;SDS011;3136;48.788;9.772;2022-09-09T02:57:48;7.97;;;2.97;;
6205;SDS011;3136;48.788;9.772;2022-09-09T03:00:15;8.43;;;3.00;;
6205;SDS011;3136;48.788;9.772;2022-09-09T03:02:40;7.87;;;3.10;;
6205;SDS011;3136;48.788;9.772;2022-09-09T03:05:07;6.30;;;3.03;;
6205;SDS011;3136;48.788;9.772;2022-09-09T03:07:33;6.13;;;3.00;;
6205;SDS011;3136;48.788;9.772;2022-09-09T03:09:58;3.67;;;2.70;;
6205;SDS011;3136;48.788;9.772;2022-09-09T03:12:24;5.97;;;2.97;;
6205;SDS011;3136;48.788;9.772;2022-09-09T03:14:49;6.00;;;2.90;;
6205;SDS011;3136;48.788;9.772;2022-09-09T03:17:15;6.73;;;2.77;;
6205;SDS011;3136;48.788;9.772;2022-09-09T03:19:41;4.23;;;2.80;;
6205;SDS011;3136;48.788;9.772;2022-09-09T03:22:08;4.67;;;2.90;;
6205;SDS011;3136;48.788;9.772;2022-09-09T03:24:34;6.60;;;2.80;;
6205;SDS011;3136;48.788;9.772;2022-09-09T03:27:00;4.40;;;3.20;;
6205;SDS011;3136;48.788;9.772;2022-09-09T03:29:26;6.10;;;2.90;;
6205;SDS011;3136;48.788;9.772;2022-09-09T03:31:51;4.10;;;2.57;;
6205;SDS011;3136;48.788;9.772;2022-09-09T03:34:17;6.37;;;3.10;;
6205;SDS011;3136;48.788;9.772;2022-09-09T03:36:42;7.13;;;2.90;;
6205;SDS011;3136;48.788;9.772;2022-09-09T03:39:08;4.80;;;3.00;;
6205;SDS011;3136;48.788;9.772;2022-09-09T03:41:33;5.70;;;3.20;;
6205;SDS011;3136;48.788;9.772;2022-09-09T03:43:59;9.27;;;3.33;;
6205;SDS011;3136;48.788;9.772;2022-09-09T03:46:25;7.93;;;3.20;;
6205;SDS011;3136;48.788;9.772;2022-09-09T03:48:51;3.77;;;2.80;;
6205;SDS011;3136;48.788;9.772;2022-09-09T03:51:19;4.90;;;3.00;;
6205;SDS011;3136;48.788;9.772;2022-09-09T03:53:46;5.80;;;2.90;;
6205;SDS011;3136;48.788;9.772;2022-09-09T03:56:12;5.07;;;3.00;;
6205;SDS011;3136;48.788;9.772;2022-09-09T03:58:38;7.70;;;2.93;;
6205;SDS011;3136;48.788;9.772;2022-09-09T04:03:48;4.97;;;2.80;;
6205;SDS011;3136;48.788;9.772;2022-09-09T04:06:14;7.63;;;3.20;;
6205;SDS011;3136;48.788;9.772;2022-09-09T04:08:40;5.27;;;3.03;;
6205;SDS011;3136;48.788;9.772;2022-09-09T04:11:06;5.70;;;2.63;;
6205;SDS011;3136;48.788;9.772;2022-09-09T04:13:35;6.93;;;3.10;;
6205;SDS011;3136;48.788;9.772;2022-09-09T04:16:04;9.70;;;2.87;;
6205;SDS011;3136;48.788;9.772;2022-09-09T04:18:30;3.80;;;2.50;;
6205;SDS011;3136;48.788;9.772;2022-09-09T04:20:56;4.13;;;2.73;;
6205;SDS011;3136;48.788;9.772;2022-09-09T04:23:23;4.13;;;3.00;;
6205;SDS011;3136;48.788;9.772;2022-09-09T04:25:50;3.47;;;2.33;;
6205;SDS011;3136;48.788;9.772;2022-09-09T04:28:17;3.77;;;2.30;;
6205;SDS011;3136;48.788;9.772;2022-09-09T04:30:44;4.20;;;2.47;;
6205;SDS011;3136;48.788;9.772;2022-09-09T04:33:10;5.13;;;2.40;;
6205;SDS011;3136;48.788;9.772;2022-09-09T04:35:38;5.17;;;2.60;;
6205;SDS011;3136;48.788;9.772;2022-09-09T04:38:04;5.97;;;2.67;;
6205;SDS011;3136;48.788;9.772;2022-09-09T04:40:32;4.03;;;2.60;;
6205;SDS011;3136;48.788;9.772;2022-09-09T04:42:58;4.43;;;2.40;;
6205;SDS011;3136;48.788;9.772;2022-09-09T04:45:26;9.10;;;2.93;;
6205;SDS011;3136;48.788;9.772;2022-09-09T04:47:52;3.70;;;2.40;;
6205;SDS011;3136;48.788;9.772;2022-09-09T04:50:19;5.10;;;2.77;;
6205;SDS011;3136;48.788;9.772;2022-09-09T04:52:45;4.73;;;2.43;;
6205;SDS011;3136;48.788;9.772;2022-09-09T04:55:10;2.93;;;2.40;;
6205;SDS011;3136;48.788;9.772;2022-09-09T04:57:37;3.30;;;2.40;;
6205;SDS011;3136;48.788;9.772;2022-09-09T05:00:04;5.07;;;2.60;;
6205;SDS011;3136;48.788;9.772;2022-09-09T05:02:30;3.60;;;2.57;;
6205;SDS011;3136;48.788;9.772;2022-09-09T05:04:57;6.77;;;2.90;;
6205;SDS011;3136;48.788;9.772;2022-09-09T05:07:23;6.13;;;2.80;;
6205;SDS011;3136;48.788;9.772;2022-09-09T05:09:49;5.43;;;3.03;;
6205;SDS011;3136;48.788;9.772;2022-09-09T05:12:15;5.10;;;2.80;;
6205;SDS011;3136;48.788;9.772;2022-09-09T05:14:44;3.20;;;2.63;;
6205;SDS011;3136;48.788;9.772;2022-09-09T05:17:09;6.80;;;2.67;;
6205;SDS011;3136;48.788;9.772;2022-09-09T05:19:35;7.47;;;2.90;;
6205;SDS011;3136;48.788;9.772;2022-09-09T05:22:01;5.70;;;3.00;;
6205;SDS011;3136;48.788;9.772;2022-09-09T05:24:27;4.57;;;2.77;;
6205;SDS011;3136;48.788;9.772;2022-09-09T05:26:54;6.97;;;2.73;;
6205;SDS011;3136;48.788;9.772;2022-09-09T05:29:25;4.93;;;2.47;;
6205;SDS011;3136;48.788;9.772;2022-09-09T05:31:51;6.67;;;3.10;;
6205;SDS011;3136;48.788;9.772;2022-09-09T05:34:17;4.30;;;2.67;;
6205;SDS011;3136;48.788;9.772;2022-09-09T05:36:42;5.80;;;3.10;;
6205;SDS011;3136;48.788;9.772;2022-09-09T05:39:08;7.73;;;3.10;;
6205;SDS011;3136;48.788;9.772;2022-09-09T05:41:34;10.97;;;2.83;;
6205;SDS011;3136;48.788;9.772;2022-09-09T05:44:00;4.57;;;2.73;;
6205;SDS011;3136;48.788;9.772;2022-09-09T05:46:26;6.03;;;2.53;;
6205;SDS011;3136;48.788;9.772;2022-09-09T05:48:52;3.83;;;2.60;;
6205;SDS011;3136;48.788;9.772;2022-09-09T05:51:19;12.57;;;2.77;;
6205;SDS011;3136;48.788;9.772;2022-09-09T05:53:47;3.87;;;2.80;;
6205;SDS011;3136;48.788;9.772;2022-09-09T05:56:14;7.20;;;3.27;;
6205;SDS011;3136;48.788;9.772;2022-09-09T05:58:41;6.77;;;2.80;;
6205;SDS011;3136;48.788;9.772;2022-09-09T06:01:34;7.17;;;3.23;;
6205;SDS011;3136;48.788;9.772;2022-09-09T06:03:58;5.60;;;2.63;;
6205;SDS011;3136;48.788;9.772;2022-09-09T06:06:29;6.83;;;2.70;;
6205;SDS011;3136;48.788;9.772;2022-09-09T06:08:57;6.87;;;2.60;;
6205;SDS011;3136;48.788;9.772;2022-09-09T06:11:24;3.20;;;2.70;;
6205;SDS011;3136;48.788;9.772;2022-09-09T06:13:51;6.37;;;2.83;;
6205;SDS011;3136;48.788;9.772;2022-09-09T06:16:19;6.37;;;2.80;;
6205;SDS011;3136;48.788;9.772;2022-09-09T06:18:48;12.97;;;3.60;;
6205;SDS011;3136;48.788;9.772;2022-09-09T06:21:16;5.90;;;2.90;;
6205;SDS011;3136;48.788;9.772;2022-09-09T06:23:45;6.20;;;3.03;;
6205;SDS011;3136;48.788;9.772;2022-09-09T06:26:14;5.27;;;2.83;;
6205;SDS011;3136;48.788;9.772;2022-09-09T06:28:40;4.53;;;2.63;;
6205;SDS011;3136;48.788;9.772;2022-09-09T06:31:08;7.50;;;2.60;;
6205;SDS011;3136;48.788;9.772;2022-09-09T06:33:36;9.47;;;3.00;;
6205;SDS011;3136;48.788;9.772;2022-09-09T06:36:06;9.90;;;2.60;;
6205;SDS011;3136;48.788;9.772;2022-09-09T06:38:36;3.80;;;2.60;;
6205;SDS011;3136;48.788;9.772;2022-09-09T06:41:01;4.23;;;2.50;;
6205;SDS011;3136;48.788;9.772;2022-09-09T06:43:27;5.13;;;2.63;;
6205;SDS011;3136;48.788;9.772;2022-09-09T06:45:57;5.80;;;2.70;;
6205;SDS011;3136;48.788;9.772;2022-09-09T06:48:25;4.37;;;2.37;;
6205;SDS011;3136;48.788;9.772;2022-09-09T06:51:12;6.20;;;2.67;;
6205;SDS011;3136;48.788;9.772;2022-09-09T06:53:41;9.10;;;2.63;;
6205;SDS011;3136;48.788;9.772;2022-09-09T06:56:19;3.47;;;2.50;;
6205;SDS011;3136;48.788;9.772;2022-09-09T06:58:53;5.60;;;2.30;;
6205;SDS011;3136;48.788;9.772;2022-09-09T07:01:20;3.83;;;2.17;;
6205;SDS011;3136;48.788;9.772;2022-09-09T07:03:48;5.67;;;2.33;;
6205;SDS011;3136;48.788;9.772;2022-09-09T07:06:17;5.33;;;2.57;;
6205;SDS011;3136;48.788;9.772;2022-09-09T07:08:54;4.97;;;2.60;;
6205;SDS011;3136;48.788;9.772;2022-09-09T07:11:24;4.50;;;2.60;;
6205;SDS011;3136;48.788;9.772;2022-09-09T07:13:52;4.70;;;2.30;;
6205;SDS011;3136;48.788;9.772;2022-09-09T07:16:19;4.57;;;2.30;;
6205;SDS011;3136;48.788;9.772;2022-09-09T07:18:45;6.37;;;2.10;;
6205;SDS011;3136;48.788;9.772;2022-09-09T07:21:12;5.90;;;2.00;;
6205;SDS011;3136;48.788;9.772;2022-09-09T07:23:39;4.10;;;2.17;;
6205;SDS011;3136;48.788;9.772;2022-09-09T07:26:12;6.30;;;1.87;;
6205;SDS011;3136;48.788;9.772;2022-09-09T07:28:39;6.17;;;2.23;;
6205;SDS011;3136;48.788;9.772;2022-09-09T07:31:06;5.43;;;1.97;;
6205;SDS011;3136;48.788;9.772;2022-09-09T07:33:38;3.60;;;2.10;;
6205;SDS011;3136;48.788;9.772;2022-09-09T07:38:42;3.37;;;1.87;;
6205;SDS011;3136;48.788;9.772;2022-09-09T07:41:11;3.63;;;2.10;;
6205;SDS011;3136;48.788;9.772;2022-09-09T07:43:41;6.70;;;2.20;;
6205;SDS011;3136;48.788;9.772;2022-09-09T07:46:07;3.90;;;1.93;;
6205;SDS011;3136;48.788;9.772;2022-09-09T07:48:35;6.90;;;2.20;;
6205;SDS011;3136;48.788;9.772;2022-09-09T07:51:11;5.03;;;2.07;;
6205;SDS011;3136;48.788;9.772;2022-09-09T07:53:45;5.70;;;1.93;;
6205;SDS011;3136;48.788;9.772;2022-09-09T07:56:12;3.50;;;1.80;;
6205;SDS011;3136;48.788;9.772;2022-09-09T07:58:39;3.90;;;1.70;;
6205;SDS011;3136;48.788;9.772;2022-09-09T08:01:06;4.90;;;2.00;;
6205;SDS011;3136;48.788;9.772;2022-09-09T08:03:36;6.57;;;2.00;;
6205;SDS011;3136;48.788;9.772;2022-09-09T08:06:04;3.67;;;1.73;;
6205;SDS011;3136;48.788;9.772;2022-09-09T08:08:32;6.73;;;1.70;;
6205;SDS011;3136;48.788;9.772;2022-09-09T08:11:02;7.67;;;1.90;;
6205;SDS011;3136;48.788;9.772;2022-09-09T08:13:30;3.07;;;1.93;;
6205;SDS011;3136;48.788;9.772;2022-09-09T08:16:03;4.73;;;1.60;;
6205;SDS011;3136;48.788;9.772;2022-09-09T08:18:32;3.63;;;1.77;;
6205;SDS011;3136;48.788;9.772;2022-09-09T08:20:57;4.87;;;1.70;;
6205;SDS011;3136;48.788;9.772;2022-09-09T08:23:23;7.43;;;1.97;;
6205;SDS011;3136;48.788;9.772;2022-09-09T08:25:48;5.67;;;1.77;;
6205;SDS011;3136;48.788;9.772;2022-09-09T08:28:15;4.67;;;1.57;;
6205;SDS011;3136;48.788;9.772;2022-09-09T08:30:40;5.90;;;1.73;;
6205;SDS011;3136;48.788;9.772;2022-09-09T08:33:07;1.97;;;1.30;;
6205;SDS011;3136;48.788;9.772;2022-09-09T08:35:34;5.33;;;1.50;;
6205;SDS011;3136;48.788;9.772;2022-09-09T08:37:59;2.53;;;1.17;;
6205;SDS011;3136;48.788;9.772;2022-09-09T08:40:26;2.60;;;1.20;;
6205;SDS011;3136;48.788;9.772;2022-09-09T08:42:57;6.00;;;1.57;;
6205;SDS011;3136;48.788;9.772;2022-09-09T08:46:05;2.63;;;1.23;;
6205;SDS011;3136;48.788;9.772;2022-09-09T08:48:35;3.40;;;1.20;;
6205;SDS011;3136;48.788;9.772;2022-09-09T08:51:09;3.43;;;1.10;;
6205;SDS011;3136;48.788;9.772;2022-09-09T08:53:38;4.30;;;1.30;;
6205;SDS011;3136;48.788;9.772;2022-09-09T08:56:19;5.60;;;1.37;;
6205;SDS011;3136;48.788;9.772;2022-09-09T08:58:49;3.20;;;1.73;;
6205;SDS011;3136;48.788;9.772;2022-09-09T09:04:05;8.30;;;1.43;;
6205;SDS011;3136;48.788;9.772;2022-09-09T09:11:56;5.57;;;1.57;;
6205;SDS011;3136;48.788;9.772;2022-09-09T09:14:27;6.53;;;1.40;;
6205;SDS011;3136;48.788;9.772;2022-09-09T09:17:02;3.90;;;1.10;;
6205;SDS011;3136;48.788;9.772;2022-09-09T09:19:32;3.47;;;1.30;;
6205;SDS011;3136;48.788;9.772;2022-09-09T09:27:25;5.67;;;1.40;;
6205;SDS011;3136;48.788;9.772;2022-09-09T09:29:54;3.93;;;1.10;;
6205;SDS011;3136;48.788;9.772;2022-09-09T09:32:22;5.50;;;1.70;;
6205;SDS011;3136;48.788;9.772;2022-09-09T09:34:54;3.90;;;1.60;;
6205;SDS011;3136;48.788;9.772;2022-09-09T09:37:31;3.73;;;1.33;;
6205;SDS011;3136;48.788;9.772;2022-09-09T09:40:13;2.33;;;1.37;;
6205;SDS011;3136;48.788;9.772;2022-09-09T09:42:54;4.93;;;1.50;;
6205;SDS011;3136;48.788;9.772;2022-09-09T09:45:35;5.43;;;1.43;;
6205;SDS011;3136;48.788;9.772;2022-09-09T09:48:09;3.60;;;1.40;;
6205;SDS011;3136;48.788;9.772;2022-09-09T09:50:46;3.67;;;1.23;;
6205;SDS011;3136;48.788;9.772;2022-09-09T09:53:24;4.20;;;1.30;;
6205;SDS011;3136;48.788;9.772;2022-09-09T09:55:55;6.33;;;1.40;;
6205;SDS011;3136;48.788;9.772;2022-09-09T09:58:25;5.80;;;1.60;;
6205;SDS011;3136;48.788;9.772;2022-09-09T10:00:55;2.17;;;1.20;;
6205;SDS011;3136;48.788;9.772;2022-09-09T10:03:28;5.83;;;1.47;;
6205;SDS011;3136;48.788;9.772;2022-09-09T10:06:02;5.07;;;1.77;;
6205;SDS011;3136;48.788;9.772;2022-09-09T10:08:28;5.83;;;1.57;;
6205;SDS011;3136;48.788;9.772;2022-09-09T10:19:38;5.90;;;1.40;;
6205;SDS011;3136;48.788;9.772;2022-09-09T10:22:26;7.40;;;1.50;;
6205;SDS011;3136;48.788;9.772;2022-09-09T10:30:21;3.13;;;1.43;;
6205;SDS011;3136;48.788;9.772;2022-09-09T10:32:53;3.30;;;1.13;;
6205;SDS011;3136;48.788;9.772;2022-09-09T10:38:39;5.57;;;1.30;;
6205;SDS011;3136;48.788;9.772;2022-09-09T10:41:19;3.13;;;1.10;;
6205;SDS011;3136;48.788;9.772;2022-09-09T10:44:13;2.83;;;1.20;;
6205;SDS011;3136;48.788;9.772;2022-09-09T10:52:10;4.68;;;1.52;;
6205;SDS011;3136;48.788;9.772;2022-09-09T10:54:56;2.38;;;1.10;;
6205;SDS011;3136;48.788;9.772;2022-09-09T11:00:06;4.22;;;1.23;;
6205;SDS011;3136;48.788;9.772;2022-09-09T11:02:41;3.42;;;1.27;;
6205;SDS011;3136;48.788;9.772;2022-09-09T11:05:20;5.43;;;1.33;;
6205;SDS011;3136;48.788;9.772;2022-09-09T11:07:58;4.10;;;1.20;;
6205;SDS011;3136;48.788;9.772;2022-09-09T11:10:30;5.35;;;1.25;;
6205;SDS011;3136;48.788;9.772;2022-09-09T11:13:40;3.03;;;1.10;;
6205;SDS011;3136;48.788;9.772;2022-09-09T11:18:48;6.20;;;1.40;;
6205;SDS011;3136;48.788;9.772;2022-09-09T11:21:25;4.00;;;1.20;;
6205;SDS011;3136;48.788;9.772;2022-09-09T11:24:15;2.50;;;1.10;;
6205;SDS011;3136;48.788;9.772;2022-09-09T11:26:54;1.88;;;0.90;;
6205;SDS011;3136;48.788;9.772;2022-09-09T11:29:44;4.85;;;1.45;;
6205;SDS011;3136;48.788;9.772;2022-09-09T11:41:12;2.80;;;1.10;;
6205;SDS011;3136;48.788;9.772;2022-09-09T11:43:40;4.03;;;1.23;;
6205;SDS011;3136;48.788;9.772;2022-09-09T11:46:08;3.65;;;1.50;;
6205;SDS011;3136;48.788;9.772;2022-09-09T11:48:45;2.90;;;0.90;;
6205;SDS011;3136;48.788;9.772;2022-09-09T11:51:26;2.55;;;1.10;;
6205;SDS011;3136;48.788;9.772;2022-09-09T11:53:57;3.05;;;1.15;;
6205;SDS011;3136;48.788;9.772;2022-09-09T11:56:33;3.03;;;1.10;;
6205;SDS011;3136;48.788;9.772;2022-09-09T11:59:24;3.95;;;2.38;;
6205;SDS011;3136;48.788;9.772;2022-09-09T12:04:28;2.08;;;0.90;;
6205;SDS011;3136;48.788;9.772;2022-09-09T12:13:17;3.75;;;1.20;;
6205;SDS011;3136;48.788;9.772;2022-09-09T12:15:49;5.53;;;1.00;;
6205;SDS011;3136;48.788;9.772;2022-09-09T12:18:37;1.70;;;0.77;;
6205;SDS011;3136;48.788;9.772;2022-09-09T12:24:10;3.63;;;0.90;;
6205;SDS011;3136;48.788;9.772;2022-09-09T12:26:43;2.23;;;0.90;;
6205;SDS011;3136;48.788;9.772;2022-09-09T12:34:15;3.37;;;1.20;;
6205;SDS011;3136;48.788;9.772;2022-09-09T12:37:12;3.53;;;1.00;;
6205;SDS011;3136;48.788;9.772;2022-09-09T12:39:51;8.60;;;1.70;;
6205;SDS011;3136;48.788;9.772;2022-09-09T12:42:23;3.53;;;1.10;;
6205;SDS011;3136;48.788;9.772;2022-09-09T12:44:59;3.13;;;1.10;;
6205;SDS011;3136;48.788;9.772;2022-09-09T12:47:43;3.07;;;1.07;;
6205;SDS011;3136;48.788;9.772;2022-09-09T12:50:27;3.73;;;1.23;;
6205;SDS011;3136;48.788;9.772;2022-09-09T12:52:57;3.10;;;1.00;;
6205;SDS011;3136;48.788;9.772;2022-09-09T12:55:30;7.03;;;1.30;;
6205;SDS011;3136;48.788;9.772;2022-09-09T12:57:58;3.37;;;1.07;;
6205;SDS011;3136;48.788;9.772;2022-09-09T13:00:26;3.43;;;1.30;;
6205;SDS011;3136;48.788;9.772;2022-09-09T13:07:49;1.97;;;1.00;;
6205;SDS011;3136;48.788;9.772;2022-09-09T13:10:20;4.03;;;1.27;;
6205;SDS011;3136;48.788;9.772;2022-09-09T13:12:49;3.83;;;0.90;;
6205;SDS011;3136;48.788;9.772;2022-09-09T13:15:22;1.80;;;0.80;;
6205;SDS011;3136;48.788;9.772;2022-09-09T13:17:55;3.07;;;0.90;;
6205;SDS011;3136;48.788;9.772;2022-09-09T13:20:23;2.97;;;1.07;;
6205;SDS011;3136;48.788;9.772;2022-09-09T13:22:50;4.87;;;1.00;;
6205;SDS011;3136;48.788;9.772;2022-09-09T13:25:20;1.40;;;0.83;;
6205;SDS011;3136;48.788;9.772;2022-09-09T13:28:36;1.87;;;0.90;;
6205;SDS011;3136;48.788;9.772;2022-09-09T13:30:54;3.05;;;1.00;;
6205;SDS011;3136;48.788;9.772;2022-09-09T13:33:37;3.78;;;0.85;;
6205;SDS011;3136;48.788;9.772;2022-09-09T13:36:05;1.67;;;0.80;;
6205;SDS011;3136;48.788;9.772;2022-09-09T13:38:40;2.78;;;1.00;;
6205;SDS011;3136;48.788;9.772;2022-09-09T13:41:21;2.50;;;0.90;;
6205;SDS011;3136;48.788;9.772;2022-09-09T13:43:49;3.05;;;1.05;;
6205;SDS011;3136;48.788;9.772;2022-09-09T13:51:34;2.07;;;0.97;;
6205;SDS011;3136;48.788;9.772;2022-09-09T13:54:05;2.80;;;0.97;;
6205;SDS011;3136;48.788;9.772;2022-09-09T13:56:35;3.70;;;1.00;;
6205;SDS011;3136;48.788;9.772;2022-09-09T13:59:02;1.83;;;0.70;;
6205;SDS011;3136;48.788;9.772;2022-09-09T14:01:29;1.93;;;0.90;;
6205;SDS011;3136;48.788;9.772;2022-09-09T14:03:55;3.40;;;0.87;;
6205;SDS011;3136;48.788;9.772;2022-09-09T14:06:21;2.67;;;0.77;;
6205;SDS011;3136;48.788;9.772;2022-09-09T14:08:47;2.20;;;0.87;;
6205;SDS011;3136;48.788;9.772;2022-09-09T14:11:14;1.57;;;0.80;;
6205;SDS011;3136;48.788;9.772;2022-09-09T14:13:40;2.27;;;0.70;;
6205;SDS011;3136;48.788;9.772;2022-09-09T14:16:05;3.70;;;1.03;;
6205;SDS011;3136;48.788;9.772;2022-09-09T14:18:31;2.47;;;0.90;;
6205;SDS011;3136;48.788;9.772;2022-09-09T14:20:57;2.27;;;0.70;;
6205;SDS011;3136;48.788;9.772;2022-09-09T14:23:23;2.20;;;0.83;;
6205;SDS011;3136;48.788;9.772;2022-09-09T14:25:49;4.23;;;0.90;;
6205;SDS011;3136;48.788;9.772;2022-09-09T14:28:16;3.23;;;0.90;;
6205;SDS011;3136;48.788;9.772;2022-09-09T14:30:42;2.27;;;0.87;;
6205;SDS011;3136;48.788;9.772;2022-09-09T14:33:10;1.70;;;0.70;;
6205;SDS011;3136;48.788;9.772;2022-09-09T14:35:38;3.37;;;1.00;;
6205;SDS011;3136;48.788;9.772;2022-09-09T14:38:04;3.17;;;0.93;;
6205;SDS011;3136;48.788;9.772;2022-09-09T14:40:30;1.60;;;0.80;;
6205;SDS011;3136;48.788;9.772;2022-09-09T14:42:56;2.17;;;0.77;;
6205;SDS011;3136;48.788;9.772;2022-09-09T14:45:22;1.43;;;0.83;;
6205;SDS011;3136;48.788;9.772;2022-09-09T14:47:49;2.43;;;0.90;;
6205;SDS011;3136;48.788;9.772;2022-09-09T14:50:16;2.70;;;0.90;;
6205;SDS011;3136;48.788;9.772;2022-09-09T14:52:42;1.77;;;0.53;;
6205;SDS011;3136;48.788;9.772;2022-09-09T14:55:08;1.50;;;0.87;;
6205;SDS011;3136;48.788;9.772;2022-09-09T14:57:34;4.90;;;0.83;;
6205;SDS011;3136;48.788;9.772;2022-09-09T15:00:00;3.57;;;0.80;;
6205;SDS011;3136;48.788;9.772;2022-09-09T15:02:28;2.00;;;0.83;;
6205;SDS011;3136;48.788;9.772;2022-09-09T15:04:54;2.53;;;0.63;;
6205;SDS011;3136;48.788;9.772;2022-09-09T15:07:22;2.23;;;1.00;;
6205;SDS011;3136;48.788;9.772;2022-09-09T15:09:49;3.43;;;0.90;;
6205;SDS011;3136;48.788;9.772;2022-09-09T15:12:14;2.90;;;0.80;;
6205;SDS011;3136;48.788;9.772;2022-09-09T15:14:40;1.60;;;0.60;;
6205;SDS011;3136;48.788;9.772;2022-09-09T15:17:06;2.83;;;0.80;;
6205;SDS011;3136;48.788;9.772;2022-09-09T15:19:31;2.10;;;0.70;;
6205;SDS011;3136;48.788;9.772;2022-09-09T15:21:57;3.27;;;0.80;;
6205;SDS011;3136;48.788;9.772;2022-09-09T15:24:24;1.57;;;0.80;;
6205;SDS011;3136;48.788;9.772;2022-09-09T15:26:51;3.67;;;0.70;;
6205;SDS011;3136;48.788;9.772;2022-09-09T15:29:17;2.90;;;1.00;;
6205;SDS011;3136;48.788;9.772;2022-09-09T15:31:43;2.40;;;0.83;;
6205;SDS011;3136;48.788;9.772;2022-09-09T15:34:09;2.50;;;0.87;;
6205;SDS011;3136;48.788;9.772;2022-09-09T15:36:44;2.87;;;0.70;;
6205;SDS011;3136;48.788;9.772;2022-09-09T15:39:13;2.53;;;0.90;;
6205;SDS011;3136;48.788;9.772;2022-09-09T15:41:41;3.00;;;0.80;;
6205;SDS011;3136;48.788;9.772;2022-09-09T15:44:10;2.80;;;0.70;;
6205;SDS011;3136;48.788;9.772;2022-09-09T15:46:43;1.63;;;0.70;;
6205;SDS011;3136;48.788;9.772;2022-09-09T15:49:19;2.93;;;0.97;;
6205;SDS011;3136;48.788;9.772;2022-09-09T15:51:50;2.60;;;0.80;;
6205;SDS011;3136;48.788;9.772;2022-09-09T15:54:18;2.43;;;0.70;;
6205;SDS011;3136;48.788;9.772;2022-09-09T15:56:47;4.20;;;0.70;;
6205;SDS011;3136;48.788;9.772;2022-09-09T15:59:20;3.47;;;0.80;;
6205;SDS011;3136;48.788;9.772;2022-09-09T16:01:46;1.97;;;0.67;;
6205;SDS011;3136;48.788;9.772;2022-09-09T16:04:12;3.40;;;1.00;;
6205;SDS011;3136;48.788;9.772;2022-09-09T16:06:38;5.27;;;0.80;;
6205;SDS011;3136;48.788;9.772;2022-09-09T16:09:04;1.53;;;0.57;;
6205;SDS011;3136;48.788;9.772;2022-09-09T16:11:32;0.60;;;0.40;;
6205;SDS011;3136;48.788;9.772;2022-09-09T16:14:00;3.20;;;0.90;;
6205;SDS011;3136;48.788;9.772;2022-09-09T16:16:27;2.70;;;0.90;;
6205;SDS011;3136;48.788;9.772;2022-09-09T16:18:55;1.37;;;0.73;;
6205;SDS011;3136;48.788;9.772;2022-09-09T16:21:27;0.90;;;0.60;;
6205;SDS011;3136;48.788;9.772;2022-09-09T16:23:58;1.83;;;0.60;;
6205;SDS011;3136;48.788;9.772;2022-09-09T16:26:25;1.83;;;0.70;;
6205;SDS011;3136;48.788;9.772;2022-09-09T16:28:52;1.90;;;0.80;;
6205;SDS011;3136;48.788;9.772;2022-09-09T16:31:19;1.53;;;0.70;;
6205;SDS011;3136;48.788;9.772;2022-09-09T16:33:47;2.57;;;0.80;;
6205;SDS011;3136;48.788;9.772;2022-09-09T16:36:14;3.70;;;0.77;;
6205;SDS011;3136;48.788;9.772;2022-09-09T16:38:41;2.03;;;0.90;;
6205;SDS011;3136;48.788;9.772;2022-09-09T16:41:08;3.53;;;0.97;;
6205;SDS011;3136;48.788;9.772;2022-09-09T16:43:36;4.90;;;1.10;;
6205;SDS011;3136;48.788;9.772;2022-09-09T16:46:02;1.47;;;1.13;;
6205;SDS011;3136;48.788;9.772;2022-09-09T16:48:35;5.73;;;1.60;;
6205;SDS011;3136;48.788;9.772;2022-09-09T16:51:06;4.33;;;2.40;;
6205;SDS011;3136;48.788;9.772;2022-09-09T16:53:33;3.57;;;2.53;;
6205;SDS011;3136;48.788;9.772;2022-09-09T16:56:09;4.13;;;2.07;;
6205;SDS011;3136;48.788;9.772;2022-09-09T16:58:36;2.40;;;1.00;;
6205;SDS011;3136;48.788;9.772;2022-09-09T17:01:02;2.60;;;0.70;;
6205;SDS011;3136;48.788;9.772;2022-09-09T17:03:29;2.70;;;1.30;;
6205;SDS011;3136;48.788;9.772;2022-09-09T17:05:56;3.47;;;1.07;;
6205;SDS011;3136;48.788;9.772;2022-09-09T17:08:23;1.90;;;0.90;;
6205;SDS011;3136;48.788;9.772;2022-09-09T17:10:49;2.60;;;0.93;;
6205;SDS011;3136;48.788;9.772;2022-09-09T17:13:15;2.87;;;0.87;;
6205;SDS011;3136;48.788;9.772;2022-09-09T17:15:44;2.50;;;0.97;;
6205;SDS011;3136;48.788;9.772;2022-09-09T17:18:11;3.80;;;0.83;;
6205;SDS011;3136;48.788;9.772;2022-09-09T17:20:38;2.10;;;0.90;;
6205;SDS011;3136;48.788;9.772;2022-09-09T17:23:07;1.07;;;0.70;;
6205;SDS011;3136;48.788;9.772;2022-09-09T17:25:34;1.03;;;0.50;;
6205;SDS011;3136;48.788;9.772;2022-09-09T17:28:00;1.23;;;0.67;;
6205;SDS011;3136;48.788;9.772;2022-09-09T17:30:28;1.20;;;0.60;;
6205;SDS011;3136;48.788;9.772;2022-09-09T17:33:01;3.80;;;1.23;;